createdAt,value
2023-04-20T00:02:09.771Z,7.56
2023-04-20T00:04:36.911Z,7.45
2023-04-20T00:07:04.553Z,7.60
2023-04-20T00:09:31.972Z,7.65
2023-04-20T00:11:58.626Z,7.32
2023-04-20T00:14:25.275Z,7.68
2023-04-20T00:16:54.305Z,7.51
2023-04-20T00:19:22.422Z,7.34
2023-04-20T00:21:49.038Z,7.48
2023-04-20T00:24:15.821Z,7.53
2023-04-20T00:26:42.432Z,7.28
2023-04-20T00:29:08.998Z,7.46
2023-04-20T00:31:36.898Z,7.34
2023-04-20T00:34:03.484Z,7.64
2023-04-20T00:36:30.181Z,7.67
2023-04-20T00:38:59.387Z,7.77
2023-04-20T00:41:29.164Z,7.47
2023-04-20T00:43:56.077Z,7.45
2023-04-20T00:46:22.775Z,7.41
2023-04-20T00:48:51.846Z,7.43
2023-04-20T00:51:19.426Z,7.39
2023-04-20T00:53:46.437Z,7.91
2023-04-20T00:56:14.279Z,7.90
2023-04-20T00:58:43.981Z,7.56
2023-04-20T01:01:11.425Z,7.59
2023-04-20T01:03:39.711Z,7.73
2023-04-20T01:06:07.383Z,7.63
2023-04-20T01:08:33.977Z,7.73
2023-04-20T01:11:03.723Z,7.23
2023-04-20T01:13:30.528Z,7.37
2023-04-20T01:16:00.361Z,7.55
2023-04-20T01:18:27.821Z,7.61
2023-04-20T01:20:54.452Z,7.36
2023-04-20T01:23:21.548Z,7.45
2023-04-20T01:25:48.481Z,7.67
2023-04-20T01:28:18.086Z,7.36
2023-04-20T01:30:44.747Z,7.36
2023-04-20T01:33:11.260Z,7.62
2023-04-20T01:35:37.902Z,7.57
2023-04-20T01:38:04.463Z,7.33
2023-04-20T01:40:31.095Z,7.42
2023-04-20T01:42:59.228Z,7.51
2023-04-20T01:45:28.286Z,7.35
2023-04-20T01:47:57.233Z,7.68
2023-04-20T01:50:23.888Z,7.48
2023-04-20T01:52:51.610Z,7.41
2023-04-20T01:55:20.530Z,7.57
2023-04-20T01:57:50.136Z,7.27
2023-04-20T02:00:17.203Z,7.45
2023-04-20T02:02:46.086Z,7.35
2023-04-20T02:05:13.154Z,7.24
2023-04-20T02:07:42.588Z,7.77
2023-04-20T02:10:09.422Z,7.85
2023-04-20T02:12:36.678Z,7.72
2023-04-20T02:15:07.391Z,7.84
2023-04-20T02:17:34.014Z,7.61
2023-04-20T02:20:00.558Z,7.15
2023-04-20T02:22:27.301Z,7.54
2023-04-20T02:24:53.873Z,7.70
2023-04-20T02:27:23.585Z,7.45
2023-04-20T02:29:50.320Z,7.77
2023-04-20T02:32:16.938Z,7.55
2023-04-20T02:34:43.565Z,7.64
2023-04-20T02:37:10.380Z,7.47
2023-04-20T02:39:37.104Z,7.73
2023-04-20T02:42:10.873Z,7.96
2023-04-20T02:44:39.137Z,7.66
2023-04-20T02:47:06.062Z,7.62
2023-04-20T02:49:32.722Z,8.05
2023-04-20T02:51:59.463Z,7.46
2023-04-20T02:54:26.616Z,7.83
2023-04-20T02:56:53.865Z,7.25
2023-04-20T02:59:21.405Z,7.43
2023-04-20T03:01:56.353Z,7.77
2023-04-20T03:04:26.008Z,7.61
2023-04-20T03:07:19.043Z,7.85
2023-04-20T03:09:47.479Z,7.81
2023-04-20T03:12:35.976Z,7.89
2023-04-20T03:15:22.828Z,8.01
2023-04-20T03:17:59.104Z,7.95
2023-04-20T03:20:25.930Z,8.04
2023-04-20T03:22:56.069Z,8.31
2023-04-20T03:25:25.119Z,8.04
2023-04-20T03:27:54.934Z,7.70
2023-04-20T03:30:21.982Z,7.74
2023-04-20T03:32:54.318Z,7.62
2023-04-20T03:35:24.160Z,7.75
2023-04-20T03:37:50.782Z,7.80
2023-04-20T03:40:18.068Z,7.72
2023-04-20T03:42:44.720Z,8.01
2023-04-20T03:45:14.450Z,7.69
2023-04-20T03:47:42.086Z,7.69
2023-04-20T03:50:08.969Z,7.55
2023-04-20T03:52:35.633Z,7.97
2023-04-20T03:55:05.005Z,7.79
2023-04-20T03:57:33.217Z,8.06
2023-04-20T04:00:01.375Z,8.08
2023-04-20T04:02:36.794Z,7.76
2023-04-20T04:05:07.355Z,7.93
2023-04-20T04:07:33.946Z,7.94
2023-04-20T04:10:01.136Z,7.76
2023-04-20T04:12:29.155Z,8.03
2023-04-20T04:14:55.861Z,7.82
2023-04-20T04:17:25.595Z,7.76
2023-04-20T04:19:52.989Z,7.84
2023-04-20T04:22:19.591Z,7.86
2023-04-20T04:25:07.748Z,7.62
2023-04-20T04:27:34.812Z,7.72
2023-04-20T04:30:02.768Z,7.71
2023-04-20T04:32:30.161Z,8.02
2023-04-20T04:34:57.639Z,8.07
2023-04-20T04:37:25.910Z,8.05
2023-04-20T04:39:55.492Z,7.92
2023-04-20T04:42:34.889Z,8.02
2023-04-20T04:45:04.830Z,7.94
2023-04-20T04:47:36.908Z,8.05
2023-04-20T04:50:05.001Z,7.86
2023-04-20T04:52:34.763Z,8.00
2023-04-20T04:55:01.365Z,7.85
2023-04-20T04:57:28.016Z,8.08
2023-04-20T04:59:54.819Z,8.26
2023-04-20T05:02:22.092Z,7.93
2023-04-20T05:04:48.949Z,7.70
2023-04-20T05:07:25.873Z,8.02
2023-04-20T05:09:52.467Z,8.29
2023-04-20T05:12:19.465Z,8.41
2023-04-20T05:14:46.814Z,8.44
2023-04-20T05:17:13.325Z,8.42
2023-04-20T05:19:39.927Z,8.25
2023-04-20T05:22:06.485Z,8.19
2023-04-20T05:24:33.110Z,8.05
2023-04-20T05:27:05.822Z,8.23
2023-04-20T05:29:32.597Z,8.09
2023-04-20T05:31:59.182Z,8.28
2023-04-20T05:34:25.834Z,8.23
2023-04-20T05:36:52.917Z,8.32
2023-04-20T05:39:19.768Z,8.23
2023-04-20T05:41:47.496Z,8.40
2023-04-20T05:44:14.104Z,8.46
2023-04-20T05:46:40.847Z,8.38
2023-04-20T05:49:07.726Z,8.59
2023-04-20T05:51:34.245Z,8.53
2023-04-20T05:54:01.874Z,8.23
2023-04-20T05:56:28.497Z,8.52
2023-04-20T05:58:56.293Z,8.48
2023-04-20T06:01:22.817Z,8.75
2023-04-20T06:03:49.687Z,8.55
2023-04-20T06:06:22.473Z,8.82
2023-04-20T06:08:58.322Z,9.12
2023-04-20T06:11:30.318Z,8.51
2023-04-20T06:13:57.469Z,9.06
2023-04-20T06:16:24.119Z,8.77
2023-04-20T06:18:50.984Z,8.69
2023-04-20T06:21:20.020Z,9.06
2023-04-20T06:23:46.739Z,9.10
2023-04-20T06:26:13.271Z,9.29
2023-04-20T06:28:40.023Z,9.76
2023-04-20T06:31:06.770Z,9.57
2023-04-20T06:33:36.913Z,9.63
2023-04-20T06:36:06.370Z,9.44
2023-04-20T06:38:32.959Z,9.60
2023-04-20T06:41:02.528Z,9.52
2023-04-20T06:43:29.921Z,9.71
2023-04-20T06:45:56.605Z,9.70
2023-04-20T06:48:31.538Z,9.35
2023-04-20T06:50:59.122Z,9.93
2023-04-20T06:53:25.670Z,9.95
2023-04-20T06:55:56.010Z,9.91
2023-04-20T06:58:22.667Z,9.70
2023-04-20T07:00:49.165Z,9.25
2023-04-20T07:03:16.461Z,9.20
2023-04-20T07:05:43.207Z,9.36
2023-04-20T07:08:10.314Z,9.78
2023-04-20T07:10:36.884Z,9.71
2023-04-20T07:13:05.795Z,9.78
2023-04-20T07:15:32.359Z,9.89
2023-04-20T07:18:01.804Z,9.63
2023-04-20T07:20:28.408Z,10.21
2023-04-20T07:22:54.996Z,9.96
2023-04-20T07:25:21.657Z,10.35
2023-04-20T07:27:50.638Z,10.53
2023-04-20T07:30:17.194Z,10.42
2023-04-20T07:32:43.880Z,10.40
2023-04-20T07:35:10.513Z,10.76
2023-04-20T07:37:37.211Z,10.63
2023-04-20T07:40:06.726Z,10.81
2023-04-20T07:42:34.762Z,10.55
2023-04-20T07:45:01.558Z,10.20
2023-04-20T07:47:28.188Z,10.72
2023-04-20T07:49:54.919Z,10.54
2023-04-20T07:52:21.520Z,10.72
2023-04-20T07:54:48.661Z,10.94
2023-04-20T07:57:18.136Z,10.58
2023-04-20T07:59:45.746Z,10.58
2023-04-20T08:02:12.626Z,10.69
2023-04-20T08:04:39.428Z,10.83
2023-04-20T08:07:09.107Z,10.25
2023-04-20T08:09:35.893Z,10.39
2023-04-20T08:12:02.564Z,10.36
2023-04-20T08:14:29.436Z,10.43
2023-04-20T08:16:59.302Z,10.45
2023-04-20T08:19:26.634Z,10.52
2023-04-20T08:21:54.389Z,11.09
2023-04-20T08:24:21.269Z,10.70
2023-04-20T08:26:47.928Z,11.05
2023-04-20T08:29:15.806Z,11.23
2023-04-20T08:31:42.400Z,11.34
2023-04-20T08:34:09.089Z,11.02
2023-04-20T08:36:36.191Z,11.36
2023-04-20T08:39:09.585Z,11.35
2023-04-20T08:41:36.643Z,12.14
2023-04-20T08:44:03.739Z,12.45
2023-04-20T08:46:30.851Z,12.98
2023-04-20T08:48:58.000Z,14.19
2023-04-20T08:51:30.434Z,15.37
2023-04-20T08:53:59.710Z,15.28
2023-04-20T08:56:43.327Z,15.43
2023-04-20T08:59:12.926Z,15.32
2023-04-20T09:01:41.554Z,14.85
2023-04-20T09:04:22.040Z,14.73
2023-04-20T09:06:55.169Z,14.30
2023-04-20T09:09:22.742Z,13.51
2023-04-20T09:11:59.972Z,14.22
2023-04-20T09:14:26.585Z,14.65
2023-04-20T09:16:54.334Z,14.92
2023-04-20T09:19:24.820Z,14.83
2023-04-20T09:21:55.872Z,14.15
2023-04-20T09:24:24.022Z,13.46
2023-04-20T09:26:50.595Z,13.37
2023-04-20T09:29:20.418Z,13.06
2023-04-20T09:31:48.284Z,13.45
2023-04-20T09:34:15.752Z,13.40
2023-04-20T09:36:44.101Z,14.25
2023-04-20T09:39:12.051Z,14.63
2023-04-20T09:41:39.515Z,13.60
2023-04-20T09:44:06.798Z,13.35
2023-04-20T09:46:35.095Z,13.01
2023-04-20T09:49:03.563Z,13.41
2023-04-20T09:51:32.403Z,13.68
2023-04-20T09:54:01.235Z,13.00
2023-04-20T09:56:28.755Z,13.29
2023-04-20T09:58:56.285Z,13.24
2023-04-20T10:01:23.543Z,12.97
2023-04-20T10:03:51.469Z,14.74
2023-04-20T10:06:22.092Z,15.46
2023-04-20T10:08:52.860Z,14.85
2023-04-20T10:11:52.449Z,14.49
2023-04-20T10:14:19.861Z,13.70
2023-04-20T10:16:58.349Z,13.22
2023-04-20T10:19:41.016Z,13.21
2023-04-20T10:22:08.470Z,13.54
2023-04-20T10:24:35.855Z,14.00
2023-04-20T10:27:04.253Z,13.86
2023-04-20T10:29:31.654Z,13.95
2023-04-20T10:31:58.721Z,13.61
2023-04-20T10:34:35.642Z,14.19
2023-04-20T10:37:09.503Z,14.71
2023-04-20T10:39:38.280Z,14.50
2023-04-20T10:42:04.830Z,14.48
2023-04-20T10:44:31.490Z,14.91
2023-04-20T10:46:58.035Z,15.33
2023-04-20T10:49:29.368Z,16.49
2023-04-20T10:51:56.713Z,16.25
2023-04-20T10:54:26.981Z,16.17
2023-04-20T10:56:53.720Z,16.15
2023-04-20T10:59:24.821Z,15.78
2023-04-20T11:01:52.201Z,16.17
2023-04-20T11:04:19.353Z,15.92
2023-04-20T11:06:56.073Z,15.17
2023-04-20T11:09:28.478Z,15.16
2023-04-20T11:12:08.107Z,16.18
2023-04-20T11:14:40.190Z,17.85
2023-04-20T11:17:06.969Z,19.45
2023-04-20T11:19:34.619Z,20.21
2023-04-20T11:22:01.659Z,19.59
2023-04-20T11:24:29.037Z,18.32
2023-04-20T11:26:56.083Z,17.99
2023-04-20T11:29:32.294Z,18.14
2023-04-20T11:32:00.265Z,17.34
2023-04-20T11:34:29.165Z,16.34
2023-04-20T11:37:00.502Z,16.03
2023-04-20T11:39:27.665Z,15.30
2023-04-20T11:41:54.348Z,15.21
2023-04-20T11:44:21.474Z,14.85
2023-04-20T11:46:53.321Z,14.30
2023-04-20T11:49:21.027Z,14.50
2023-04-20T11:51:48.079Z,13.95
2023-04-20T11:54:21.902Z,13.98
2023-04-20T11:56:48.525Z,14.24
2023-04-20T11:59:16.971Z,13.82
2023-04-20T12:01:43.856Z,13.26
2023-04-20T12:04:11.085Z,13.13
2023-04-20T12:06:37.869Z,13.37
2023-04-20T12:09:06.312Z,13.27
2023-04-20T12:11:35.168Z,13.13
2023-04-20T12:14:01.676Z,13.27
2023-04-20T12:16:28.394Z,13.09
2023-04-20T12:18:55.082Z,13.44
2023-04-20T12:21:21.764Z,13.31
2023-04-20T12:23:51.081Z,12.91
2023-04-20T12:26:17.970Z,13.00
2023-04-20T12:28:48.158Z,12.47
2023-04-20T12:31:15.339Z,12.66
2023-04-20T12:33:47.729Z,12.67
2023-04-20T12:36:14.320Z,12.33
2023-04-20T12:38:40.831Z,12.72
2023-04-20T12:41:07.500Z,12.26
2023-04-20T12:43:34.025Z,12.52
2023-04-20T12:46:00.582Z,12.68
2023-04-20T12:48:27.154Z,12.13
2023-04-20T12:50:53.769Z,12.45
2023-04-20T12:53:20.473Z,12.04
2023-04-20T12:55:48.270Z,11.96
2023-04-20T12:58:16.263Z,11.23
2023-04-20T13:00:43.334Z,11.28
2023-04-20T13:03:12.436Z,11.23
2023-04-20T13:05:39.117Z,11.39
2023-04-20T13:08:05.790Z,11.36
2023-04-20T13:10:32.406Z,11.42
2023-04-20T13:12:59.745Z,11.63
2023-04-20T13:15:38.772Z,11.61
2023-04-20T13:18:06.323Z,11.71
2023-04-20T13:20:32.980Z,11.04
2023-04-20T13:23:01.142Z,11.29
2023-04-20T13:25:28.686Z,11.68
2023-04-20T13:27:55.716Z,11.69
2023-04-20T13:30:24.490Z,11.64
2023-04-20T13:32:51.441Z,11.43
2023-04-20T13:35:18.357Z,11.51
2023-04-20T13:37:45.466Z,11.39
2023-04-20T13:40:12.494Z,11.71
2023-04-20T13:42:39.212Z,11.81
2023-04-20T13:45:06.171Z,11.99
2023-04-20T13:47:33.175Z,11.68
2023-04-20T13:49:59.780Z,11.90
2023-04-20T13:52:27.210Z,11.71
2023-04-20T13:54:53.757Z,11.96
2023-04-20T13:57:20.334Z,12.17
2023-04-20T13:59:46.886Z,12.20
2023-04-20T14:02:13.500Z,11.85
2023-04-20T14:04:42.565Z,12.24
2023-04-20T14:07:11.809Z,12.00
2023-04-20T14:09:38.521Z,12.28
2023-04-20T14:12:05.357Z,11.88
2023-04-20T14:14:31.898Z,12.06
2023-04-20T14:16:58.472Z,12.26
2023-04-20T14:19:24.974Z,12.21
2023-04-20T14:21:51.709Z,12.38
2023-04-20T14:24:18.494Z,12.21
2023-04-20T14:26:45.349Z,11.68
2023-04-20T14:29:11.929Z,11.77
2023-04-20T14:31:40.760Z,11.93
2023-04-20T14:34:09.353Z,12.17
2023-04-20T14:36:46.694Z,12.05
2023-04-20T14:39:13.297Z,11.67
2023-04-20T14:41:39.898Z,11.59
2023-04-20T14:44:06.517Z,11.62
2023-04-20T14:46:35.389Z,11.60
2023-04-20T14:49:02.032Z,11.67
2023-04-20T14:51:28.561Z,11.35
2023-04-20T14:53:55.292Z,11.65
2023-04-20T14:56:21.955Z,11.88
2023-04-20T14:58:48.524Z,11.83
2023-04-20T15:01:17.851Z,11.68
2023-04-20T15:03:44.665Z,11.84
2023-04-20T15:06:13.729Z,11.89
2023-04-20T15:08:40.404Z,11.92
2023-04-20T15:11:07.010Z,11.77
2023-04-20T15:13:33.935Z,11.89
2023-04-20T15:16:00.499Z,11.74
2023-04-20T15:18:27.153Z,11.56
2023-04-20T15:20:53.695Z,11.87
2023-04-20T15:23:20.353Z,11.75
2023-04-20T15:25:47.064Z,11.93
2023-04-20T15:28:13.709Z,11.95
2023-04-20T15:30:41.168Z,11.72
2023-04-20T15:33:11.058Z,11.83
2023-04-20T15:35:39.999Z,11.86
2023-04-20T15:38:06.576Z,12.06
2023-04-20T15:40:33.272Z,11.88
2023-04-20T15:42:59.849Z,11.96
2023-04-20T15:45:26.532Z,11.83
2023-04-20T15:47:53.314Z,12.02
2023-04-20T15:50:20.663Z,12.36
2023-04-20T15:52:49.736Z,12.43
2023-04-20T15:55:16.912Z,12.59
2023-04-20T15:57:46.277Z,12.31
2023-04-20T16:00:13.577Z,12.42
2023-04-20T16:02:40.632Z,12.13
2023-04-20T16:05:07.812Z,12.55
2023-04-20T16:07:34.384Z,12.88
2023-04-20T16:10:02.213Z,12.80
2023-04-20T16:12:28.991Z,12.86
2023-04-20T16:14:57.070Z,12.53
2023-04-20T16:17:23.685Z,12.62
2023-04-20T16:19:50.403Z,13.02
2023-04-20T16:22:17.019Z,12.75
2023-04-20T16:24:43.620Z,12.61
2023-04-20T16:27:11.109Z,12.67
2023-04-20T16:29:37.889Z,12.90
2023-04-20T16:32:04.595Z,13.20
2023-04-20T16:34:31.731Z,13.51
2023-04-20T16:36:58.591Z,13.26
2023-04-20T16:39:25.302Z,13.33
2023-04-20T16:41:51.949Z,12.83
2023-04-20T16:44:18.905Z,13.06
2023-04-20T16:46:48.082Z,12.82
2023-04-20T16:49:14.786Z,13.42
2023-04-20T16:51:44.362Z,13.67
2023-04-20T16:54:14.141Z,13.31
2023-04-20T16:56:40.771Z,13.35
2023-04-20T16:59:08.037Z,13.14
2023-04-20T17:01:37.721Z,13.23
2023-04-20T17:04:04.496Z,13.44
2023-04-20T17:06:31.600Z,13.27
2023-04-20T17:09:05.372Z,12.45
2023-04-20T17:11:36.032Z,12.58
2023-04-20T17:14:03.384Z,12.32
2023-04-20T17:16:33.099Z,12.17
2023-04-20T17:18:59.746Z,12.00
2023-04-20T17:21:28.986Z,11.87
2023-04-20T17:23:58.662Z,12.03
2023-04-20T17:26:25.420Z,12.10
2023-04-20T17:28:54.380Z,12.11
2023-04-20T17:31:21.076Z,12.03
2023-04-20T17:33:47.789Z,12.03
2023-04-20T17:36:14.336Z,12.30
2023-04-20T17:38:41.070Z,12.29
2023-04-20T17:41:07.678Z,12.47
2023-04-20T17:43:36.166Z,12.26
2023-04-20T17:46:02.739Z,12.34
2023-04-20T17:48:35.594Z,12.34
2023-04-20T17:51:02.180Z,12.34
2023-04-20T17:53:28.926Z,12.29
2023-04-20T17:55:58.702Z,12.14
2023-04-20T17:58:25.645Z,12.06
2023-04-20T18:00:52.343Z,11.94
2023-04-20T18:03:20.286Z,11.74
2023-04-20T18:05:47.082Z,11.50
2023-04-20T18:08:16.401Z,11.69
2023-04-20T18:10:43.653Z,11.71
2023-04-20T18:13:10.353Z,11.45
2023-04-20T18:15:36.920Z,11.59
2023-04-20T18:18:03.844Z,11.59
2023-04-20T18:20:32.374Z,11.53
2023-04-20T18:22:59.317Z,11.76
2023-04-20T18:25:26.059Z,11.90
2023-04-20T18:27:52.595Z,11.88
2023-04-20T18:30:19.188Z,11.67
2023-04-20T18:32:45.801Z,11.62
2023-04-20T18:35:12.434Z,11.50
2023-04-20T18:37:39.117Z,11.62
2023-04-20T18:40:07.485Z,11.23
2023-04-20T18:42:34.123Z,10.92
2023-04-20T18:45:00.953Z,10.72
2023-04-20T18:47:27.692Z,10.59
2023-04-20T18:49:54.316Z,10.43
2023-04-20T18:52:20.998Z,10.57
2023-04-20T18:54:47.628Z,10.58
2023-04-20T18:57:14.429Z,10.56
2023-04-20T18:59:41.065Z,10.24
2023-04-20T19:02:13.474Z,10.07
2023-04-20T19:04:40.260Z,10.34
2023-04-20T19:07:06.772Z,10.18
2023-04-20T19:09:33.451Z,9.98
2023-04-20T19:12:00.029Z,9.82
2023-04-20T19:14:26.663Z,10.26
2023-04-20T19:16:53.323Z,10.55
2023-04-20T19:19:20.075Z,10.72
2023-04-20T19:21:47.849Z,10.48
2023-04-20T19:24:14.572Z,10.29
2023-04-20T19:26:41.144Z,9.94
2023-04-20T19:29:07.820Z,9.75
2023-04-20T19:31:37.896Z,9.81
2023-04-20T19:34:08.074Z,10.01
2023-04-20T19:36:34.685Z,9.95
2023-04-20T19:39:01.283Z,9.61
2023-04-20T19:41:28.275Z,9.86
2023-04-20T19:43:54.902Z,9.58
2023-04-20T19:46:21.629Z,9.12
2023-04-20T19:48:48.433Z,9.27
2023-04-20T19:51:17.549Z,9.25
2023-04-20T19:53:44.110Z,9.02
2023-04-20T19:56:10.954Z,9.04
2023-04-20T19:58:39.757Z,8.89
2023-04-20T20:01:09.411Z,9.44
2023-04-20T20:03:36.294Z,9.85
2023-04-20T20:06:03.746Z,10.00
2023-04-20T20:08:30.395Z,10.14
2023-04-20T20:10:57.024Z,9.96
2023-04-20T20:13:23.642Z,9.96
2023-04-20T20:15:50.779Z,9.98
2023-04-20T20:18:20.589Z,10.12
2023-04-20T20:20:47.814Z,9.93
2023-04-20T20:23:14.382Z,10.18
2023-04-20T20:25:41.113Z,10.12
2023-04-20T20:28:07.647Z,10.17
2023-04-20T20:30:34.454Z,9.81
2023-04-20T20:33:01.165Z,9.84
2023-04-20T20:35:31.761Z,9.53
2023-04-20T20:38:01.208Z,9.72
2023-04-20T20:40:30.200Z,9.90
2023-04-20T20:42:57.472Z,9.71
2023-04-20T20:45:26.276Z,9.58
2023-04-20T20:47:52.903Z,9.45
2023-04-20T20:50:20.123Z,9.40
2023-04-20T20:52:46.717Z,9.28
2023-04-20T20:55:13.502Z,9.38
2023-04-20T20:57:40.088Z,9.02
2023-04-20T21:00:08.452Z,8.97
2023-04-20T21:02:35.878Z,9.00
2023-04-20T21:05:05.225Z,8.68
2023-04-20T21:07:32.793Z,8.95
2023-04-20T21:09:59.383Z,9.44
2023-04-20T21:12:25.953Z,9.38
2023-04-20T21:14:52.547Z,9.68
2023-04-20T21:17:19.266Z,9.74
2023-04-20T21:19:45.916Z,9.82
2023-04-20T21:22:12.584Z,9.92
2023-04-20T21:24:39.226Z,9.99
2023-04-20T21:27:05.942Z,10.11
2023-04-20T21:29:32.522Z,10.06
2023-04-20T21:31:59.161Z,10.02
2023-04-20T21:34:31.092Z,10.01
2023-04-20T21:37:04.114Z,10.34
2023-04-20T21:39:31.261Z,10.04
2023-04-20T21:41:59.044Z,9.83
2023-04-20T21:44:31.907Z,9.85
2023-04-20T21:47:00.823Z,9.90
2023-04-20T21:49:29.760Z,10.03
2023-04-20T21:51:56.709Z,10.12
2023-04-20T21:54:26.002Z,10.14
2023-04-20T21:56:55.249Z,10.11
2023-04-20T21:59:21.947Z,9.88
2023-04-20T22:01:48.669Z,10.12
2023-04-20T22:04:16.628Z,10.20
2023-04-20T22:06:46.005Z,10.10
2023-04-20T22:09:13.412Z,10.14
2023-04-20T22:11:40.331Z,10.11
2023-04-20T22:14:07.691Z,10.24
2023-04-20T22:16:34.266Z,10.24
2023-04-20T22:19:01.395Z,10.15
2023-04-20T22:21:28.486Z,9.96
2023-04-20T22:23:59.056Z,10.04
2023-04-20T22:26:25.811Z,10.11
2023-04-20T22:28:54.678Z,9.70
2023-04-20T22:31:21.374Z,9.79
2023-04-20T22:33:47.958Z,9.79
2023-04-20T22:36:14.644Z,9.57
2023-04-20T22:38:43.502Z,9.46
2023-04-20T22:41:10.455Z,9.48
2023-04-20T22:43:42.229Z,9.31
2023-04-20T22:46:08.893Z,9.38
2023-04-20T22:48:35.507Z,9.22
2023-04-20T22:51:02.101Z,9.48
2023-04-20T22:53:32.221Z,9.51
2023-04-20T22:56:02.837Z,9.25
2023-04-20T22:58:31.898Z,9.39
2023-04-20T23:00:58.869Z,9.32
2023-04-20T23:03:28.753Z,9.42
2023-04-20T23:05:57.459Z,9.41
2023-04-20T23:08:25.557Z,9.41
2023-04-20T23:10:55.776Z,9.46
2023-04-20T23:13:24.645Z,9.53
2023-04-20T23:15:51.335Z,9.81
2023-04-20T23:18:18.130Z,9.82
2023-04-20T23:20:47.229Z,9.95
2023-04-20T23:23:13.819Z,10.14
2023-04-20T23:25:40.400Z,10.06
2023-04-20T23:28:07.023Z,10.11
2023-04-20T23:30:33.753Z,10.19
2023-04-20T23:33:00.470Z,10.27
2023-04-20T23:35:27.489Z,10.27
2023-04-20T23:37:55.526Z,10.35
2023-04-20T23:40:22.138Z,10.24
2023-04-20T23:42:57.750Z,10.37
2023-04-20T23:45:24.533Z,10.28
2023-04-20T23:47:51.141Z,10.24
2023-04-20T23:50:17.809Z,9.83
2023-04-20T23:52:44.416Z,9.65
2023-04-20T23:55:11.111Z,10.23
2023-04-20T23:57:37.679Z,10.09
